Time;durP1;ratioP1;P1;durP2;ratioP2;P2;SDS_P1;SDS_P2;PMS_P1;PMS_P2;Temp;Humidity;BMP_temperature;BMP_pressure;BME280_temperature;BME280_humidity;BME280_pressure;Samples;Min_cycle;Max_cycle;Signal;HPM_P1;HPM_P2
2021/06/23 00:00:04;;;;;;;11.10;5.10;;;16.90;98.30;;;;;;3925906;30;20518;-80
2021/06/23 00:02:07;;;;;;;9.50;4.60;;;17.00;98.30;;;;;;3966322;29;20550;-81
2021/06/23 00:04:11;;;;;;;10.97;5.00;;;17.00;98.30;;;;;;3967509;30;20824;-82
2021/06/23 00:06:14;;;;;;;12.17;5.40;;;17.00;98.30;;;;;;3967375;30;20544;-80
2021/06/23 00:08:17;;;;;;;10.97;5.03;;;17.00;98.30;;;;;;3965902;30;20498;-82
2021/06/23 00:10:22;;;;;;;12.40;5.20;;;16.90;98.30;;;;;;3955657;29;20498;-82
2021/06/23 00:12:29;;;;;;;9.00;5.03;;;16.90;98.30;;;;;;3952960;30;20738;-83
2021/06/23 00:14:32;;;;;;;6.70;4.30;;;16.90;98.30;;;;;;3955325;30;20525;-83
2021/06/23 00:16:35;;;;;;;9.57;4.77;;;17.00;98.30;;;;;;3948675;30;20491;-82
2021/06/23 00:18:39;;;;;;;7.43;5.53;;;17.00;98.30;;;;;;3956463;30;20503;-82
2021/06/23 00:20:45;;;;;;;6.57;4.40;;;16.90;98.30;;;;;;3953789;29;20498;-83
2021/06/23 00:22:53;;;;;;;11.97;5.37;;;16.80;98.30;;;;;;3954977;30;20473;-83
2021/06/23 00:24:56;;;;;;;6.97;4.30;;;16.70;98.30;;;;;;3957613;30;20480;-82
2021/06/23 00:27:01;;;;;;;7.17;4.60;;;16.70;98.30;;;;;;3954171;30;20840;-82
2021/06/23 00:29:05;;;;;;;7.30;4.47;;;16.70;98.30;;;;;;3955363;30;20507;-83
2021/06/23 00:31:08;;;;;;;8.17;5.10;;;16.50;98.30;;;;;;3952693;30;20601;-82
2021/06/23 00:33:16;;;;;;;9.43;5.40;;;16.40;98.30;;;;;;3953855;30;20500;-83
2021/06/23 00:35:20;;;;;;;10.93;5.20;;;16.30;98.30;;;;;;3954111;30;21372;-81
2021/06/23 00:37:25;;;;;;;7.63;5.00;;;16.10;98.30;;;;;;3960093;29;20490;-81
2021/06/23 00:39:31;;;;;;;12.67;4.90;;;16.00;98.30;;;;;;3951176;29;20499;-82
2021/06/23 00:41:37;;;;;;;7.90;5.00;;;16.00;98.30;;;;;;3952492;30;21437;-83
2021/06/23 00:43:47;;;;;;;13.20;6.23;;;15.80;98.30;;;;;;3954792;30;20476;-83
2021/06/23 00:45:52;;;;;;;11.70;5.90;;;15.80;98.30;;;;;;3954478;30;21021;-83
2021/06/23 00:47:56;;;;;;;7.63;5.60;;;15.80;98.30;;;;;;3955310;30;20531;-82
2021/06/23 00:49:59;;;;;;;10.37;6.33;;;16.00;98.30;;;;;;3950866;30;20540;-82
2021/06/23 00:52:02;;;;;;;11.30;5.67;;;16.00;98.30;;;;;;3956898;30;20508;-82
2021/06/23 00:54:10;;;;;;;12.00;5.43;;;16.10;98.30;;;;;;3959038;30;20566;-82
2021/06/23 00:56:15;;;;;;;10.43;5.63;;;16.30;98.30;;;;;;3954656;30;20492;-83
2021/06/23 00:58:18;;;;;;;10.53;5.60;;;16.50;98.30;;;;;;3940561;30;20558;-83
2021/06/23 01:00:26;;;;;;;10.43;5.47;;;16.60;98.30;;;;;;3942953;30;20495;-82
2021/06/23 01:02:30;;;;;;;12.60;6.10;;;16.70;98.30;;;;;;3942801;30;20476;-82
2021/06/23 01:04:34;;;;;;;12.03;5.67;;;16.60;98.30;;;;;;3937874;30;21212;-83
2021/06/23 01:06:37;;;;;;;8.20;5.40;;;16.50;98.30;;;;;;3944308;30;21076;-83
2021/06/23 01:08:41;;;;;;;8.53;4.63;;;16.60;98.30;;;;;;3940016;30;20513;-83
2021/06/23 01:10:44;;;;;;;9.80;5.07;;;16.70;98.30;;;;;;3943227;30;20482;-83
2021/06/23 01:13:09;;;;;;;7.37;5.23;;;16.70;98.30;;;;;;3943054;30;20483;-82
2021/06/23 01:15:14;;;;;;;10.40;5.20;;;16.70;98.30;;;;;;3944899;30;21041;-82
2021/06/23 01:17:20;;;;;;;11.90;5.60;;;16.80;98.30;;;;;;3944616;30;21293;-82
2021/06/23 01:19:26;;;;;;;6.97;5.20;;;16.80;98.30;;;;;;3942065;30;20491;-83
2021/06/23 01:21:29;;;;;;;10.40;6.20;;;16.80;98.30;;;;;;3942624;30;20519;-83
2021/06/23 01:23:34;;;;;;;10.97;5.90;;;16.90;98.30;;;;;;3947340;30;20594;-82
2021/06/23 01:25:40;;;;;;;7.63;4.70;;;16.80;98.30;;;;;;3944501;30;20479;-82
2021/06/23 01:27:44;;;;;;;9.17;6.10;;;16.70;98.30;;;;;;3947731;30;20563;-82
2021/06/23 01:29:47;;;;;;;11.00;5.40;;;16.50;98.30;;;;;;3941149;30;20587;-82
2021/06/23 01:31:51;;;;;;;8.80;5.30;;;16.10;98.30;;;;;;3943805;30;20474;-82
2021/06/23 01:33:54;;;;;;;12.90;5.47;;;16.00;98.30;;;;;;3943689;30;20491;-81
2021/06/23 01:35:58;;;;;;;15.43;6.00;;;16.00;98.30;;;;;;3949273;30;20585;-82
2021/06/23 01:38:01;;;;;;;9.80;5.10;;;16.20;98.30;;;;;;3945048;30;20487;-83
2021/06/23 01:40:08;;;;;;;13.90;5.60;;;16.20;98.30;;;;;;3945173;30;20530;-82
2021/06/23 01:42:11;;;;;;;12.70;6.00;;;16.10;98.30;;;;;;3945572;30;20479;-82
2021/06/23 01:44:14;;;;;;;8.33;5.00;;;16.20;98.30;;;;;;3947483;30;20823;-82
2021/06/23 01:46:17;;;;;;;11.20;5.60;;;16.10;98.30;;;;;;3942020;30;20501;-82
2021/06/23 01:48:24;;;;;;;9.87;5.87;;;16.00;98.30;;;;;;3946091;30;20490;-83
2021/06/23 01:50:27;;;;;;;11.37;5.83;;;16.00;98.30;;;;;;3940974;30;20509;-82
2021/06/23 01:52:31;;;;;;;16.33;5.33;;;16.00;98.30;;;;;;3941075;30;21087;-83
2021/06/23 01:54:41;;;;;;;10.77;6.30;;;16.10;98.30;;;;;;3942993;30;21205;-83
2021/06/23 01:56:46;;;;;;;10.77;5.83;;;16.10;98.30;;;;;;3944799;30;20493;-83
2021/06/23 01:58:49;;;;;;;9.83;5.10;;;16.10;98.30;;;;;;3939130;30;20484;-83
2021/06/23 02:01:04;;;;;;;10.43;6.00;;;15.90;98.30;;;;;;3939566;30;20579;-83
2021/06/23 02:03:16;;;;;;;7.60;5.33;;;15.80;98.30;;;;;;3939738;30;20754;-84
2021/06/23 02:05:29;;;;;;;10.73;5.30;;;15.70;98.30;;;;;;3942672;30;20554;-83
2021/06/23 02:07:58;;;;;;;11.70;5.83;;;15.60;98.30;;;;;;3945371;30;20483;-83
2021/06/23 02:10:24;;;;;;;10.20;6.00;;;15.50;98.30;;;;;;3941516;30;20530;-83
2021/06/23 02:13:02;;;;;;;10.30;5.20;;;15.40;98.30;;;;;;3944111;30;20569;-82
2021/06/23 02:15:10;;;;;;;15.23;5.87;;;15.30;98.30;;;;;;3940208;30;20471;-84
2021/06/23 02:17:15;;;;;;;14.07;5.70;;;15.20;98.30;;;;;;3940898;30;20478;-84
2021/06/23 02:19:25;;;;;;;13.83;6.10;;;15.10;98.30;;;;;;3941349;30;20496;-83
2021/06/23 02:21:30;;;;;;;10.17;6.40;;;15.10;98.30;;;;;;3939770;30;20480;-83
2021/06/23 02:23:36;;;;;;;11.53;6.33;;;15.10;98.30;;;;;;3940425;30;20472;-83
2021/06/23 02:25:41;;;;;;;13.60;7.03;;;15.10;98.30;;;;;;3941861;30;20570;-83
2021/06/23 02:27:46;;;;;;;11.20;6.57;;;15.00;98.30;;;;;;3941002;30;20574;-83
2021/06/23 02:29:50;;;;;;;15.13;6.80;;;15.00;98.30;;;;;;3940561;30;20511;-83
2021/06/23 02:31:56;;;;;;;15.13;6.83;;;14.90;98.30;;;;;;3944557;30;20856;-83
2021/06/23 02:34:00;;;;;;;17.83;7.80;;;14.90;98.30;;;;;;3944637;30;20912;-83
2021/06/23 02:36:03;;;;;;;11.73;7.37;;;15.00;98.30;;;;;;3946711;30;20486;-83
2021/06/23 02:38:07;;;;;;;11.47;6.67;;;15.10;98.30;;;;;;3939945;30;20965;-83
2021/06/23 02:40:14;;;;;;;13.53;7.03;;;15.30;98.30;;;;;;3942047;30;20520;-84
2021/06/23 02:42:20;;;;;;;11.33;7.00;;;15.50;98.30;;;;;;3941852;30;21084;-83
2021/06/23 02:44:26;;;;;;;15.70;7.43;;;15.70;98.30;;;;;;3943713;30;20489;-83
2021/06/23 02:46:32;;;;;;;15.10;8.13;;;16.00;98.30;;;;;;3938235;30;20538;-84
2021/06/23 02:48:39;;;;;;;12.60;6.97;;;16.10;98.30;;;;;;3940451;30;20575;-83
2021/06/23 02:50:52;;;;;;;17.13;8.87;;;16.20;98.30;;;;;;3937453;30;20578;-83
2021/06/23 02:52:57;;;;;;;12.00;7.17;;;16.30;98.30;;;;;;3937835;30;20539;-83
2021/06/23 02:55:02;;;;;;;18.23;7.07;;;16.30;98.30;;;;;;3942186;30;20507;-84
2021/06/23 02:57:06;;;;;;;19.27;7.50;;;16.30;98.30;;;;;;3945069;30;20519;-84
2021/06/23 02:59:11;;;;;;;11.20;6.70;;;16.30;98.30;;;;;;3942908;30;20586;-82
2021/06/23 03:01:17;;;;;;;15.27;7.83;;;16.10;98.30;;;;;;3941157;30;20840;-83
2021/06/23 03:03:20;;;;;;;13.63;7.17;;;16.00;98.30;;;;;;3941894;30;20483;-83
2021/06/23 03:05:23;;;;;;;15.53;6.70;;;16.00;98.30;;;;;;3939107;30;20507;-83
2021/06/23 03:07:27;;;;;;;14.73;7.57;;;16.00;98.30;;;;;;3938343;30;20476;-83
2021/06/23 03:09:30;;;;;;;14.73;7.23;;;16.10;98.30;;;;;;3942558;30;20511;-83
2021/06/23 03:11:34;;;;;;;16.73;8.47;;;16.10;98.30;;;;;;3938965;30;20571;-83
2021/06/23 03:13:37;;;;;;;18.40;7.60;;;16.10;98.30;;;;;;3942554;30;20540;-83
2021/06/23 03:15:40;;;;;;;14.13;7.37;;;16.00;98.30;;;;;;3945497;30;20483;-83
2021/06/23 03:17:44;;;;;;;10.93;7.17;;;15.90;98.30;;;;;;3941002;30;20558;-83
2021/06/23 03:19:48;;;;;;;13.83;8.00;;;15.90;98.30;;;;;;3938496;30;20742;-83
2021/06/23 03:21:52;;;;;;;19.17;9.60;;;15.80;98.30;;;;;;3936262;30;20582;-83
2021/06/23 03:23:55;;;;;;;14.83;8.00;;;15.80;98.30;;;;;;3931758;30;20828;-83
2021/06/23 03:26:00;;;;;;;21.40;9.60;;;15.80;98.30;;;;;;3941262;30;20541;-83
2021/06/23 03:28:05;;;;;;;13.70;8.13;;;15.70;98.30;;;;;;3943797;30;20901;-82
2021/06/23 03:30:09;;;;;;;13.43;8.10;;;15.70;98.30;;;;;;3938825;30;20517;-83
2021/06/23 03:32:12;;;;;;;19.63;8.70;;;15.60;98.30;;;;;;3946495;30;20503;-83
2021/06/23 03:34:17;;;;;;;12.80;8.00;;;15.50;98.30;;;;;;3938268;30;20506;-82
2021/06/23 03:36:20;;;;;;;12.10;8.07;;;15.50;98.30;;;;;;3944807;30;20471;-82
2021/06/23 03:38:23;;;;;;;16.50;8.80;;;15.50;98.30;;;;;;3940373;30;20563;-83
2021/06/23 03:40:26;;;;;;;16.90;9.17;;;15.50;98.30;;;;;;3937233;30;20491;-83
2021/06/23 03:42:30;;;;;;;13.83;7.83;;;15.50;98.30;;;;;;3938304;30;20818;-82
2021/06/23 03:44:34;;;;;;;17.13;8.07;;;15.40;98.30;;;;;;3936399;30;20479;-83
2021/06/23 03:46:37;;;;;;;19.27;8.77;;;15.40;98.30;;;;;;3939940;30;20492;-82
2021/06/23 03:48:43;;;;;;;17.40;8.30;;;15.40;98.30;;;;;;3941902;30;20495;-83
2021/06/23 03:50:48;;;;;;;15.07;8.70;;;15.30;98.30;;;;;;3941467;30;20507;-83
2021/06/23 03:52:51;;;;;;;20.77;9.90;;;15.30;98.30;;;;;;3940300;30;21012;-83
2021/06/23 03:54:54;;;;;;;18.93;8.90;;;15.40;98.30;;;;;;3947468;30;20463;-82
2021/06/23 03:56:57;;;;;;;19.80;9.40;;;15.40;98.30;;;;;;3950958;30;20498;-82
2021/06/23 03:59:01;;;;;;;15.50;9.30;;;15.50;98.30;;;;;;3952816;30;20522;-82
2021/06/23 04:01:04;;;;;;;16.57;9.50;;;15.50;98.30;;;;;;3952166;30;20469;-82
2021/06/23 04:03:07;;;;;;;17.13;9.40;;;15.60;98.30;;;;;;3953386;30;20503;-82
2021/06/23 04:05:12;;;;;;;20.90;9.60;;;15.70;98.30;;;;;;3952450;30;20468;-82
2021/06/23 04:07:17;;;;;;;14.70;8.70;;;15.80;98.30;;;;;;3952008;30;20479;-82
2021/06/23 04:09:20;;;;;;;19.83;9.50;;;15.70;98.30;;;;;;3944688;30;20492;-83
2021/06/23 04:11:23;;;;;;;24.40;11.20;;;15.70;98.30;;;;;;3937614;30;20576;-83
2021/06/23 04:13:26;;;;;;;25.27;10.30;;;15.80;98.30;;;;;;3944045;30;20575;-82
2021/06/23 04:15:29;;;;;;;14.63;9.00;;;15.80;98.30;;;;;;3944160;30;20595;-83
2021/06/23 04:17:33;;;;;;;20.43;9.10;;;15.90;98.30;;;;;;3942767;30;20567;-82
2021/06/23 04:19:36;;;;;;;13.10;8.57;;;15.90;98.30;;;;;;3942447;30;20531;-83
2021/06/23 04:21:39;;;;;;;17.03;9.07;;;15.80;98.30;;;;;;3938328;30;20862;-82
2021/06/23 04:23:43;;;;;;;13.03;9.57;;;15.90;98.30;;;;;;3940624;30;20483;-83
2021/06/23 04:25:46;;;;;;;14.10;9.23;;;15.80;98.30;;;;;;3945741;30;20483;-83
2021/06/23 04:27:49;;;;;;;16.73;9.20;;;15.70;98.30;;;;;;3944900;30;20488;-83
2021/06/23 04:29:52;;;;;;;17.27;9.77;;;15.70;98.30;;;;;;3938159;30;21087;-83
2021/06/23 04:31:55;;;;;;;14.27;9.60;;;15.70;98.30;;;;;;3942178;30;20471;-83
2021/06/23 04:34:00;;;;;;;19.60;8.93;;;15.90;98.30;;;;;;3945562;30;20474;-83
2021/06/23 04:36:03;;;;;;;14.13;8.60;;;16.10;98.30;;;;;;3943918;30;20489;-83
2021/06/23 04:38:08;;;;;;;18.90;8.87;;;16.30;98.30;;;;;;3944944;30;20475;-83
2021/06/23 04:40:16;;;;;;;15.33;9.67;;;16.40;98.30;;;;;;3941335;30;20599;-83
2021/06/23 04:42:19;;;;;;;19.13;9.43;;;16.40;98.30;;;;;;3941884;30;20555;-83
2021/06/23 04:44:22;;;;;;;13.57;9.50;;;16.40;98.30;;;;;;3946654;30;20560;-83
2021/06/23 04:46:25;;;;;;;38.17;11.93;;;16.60;98.30;;;;;;3940455;30;20484;-84
2021/06/23 04:48:29;;;;;;;13.10;8.63;;;16.60;98.30;;;;;;3945672;30;20479;-82
2021/06/23 04:50:39;;;;;;;16.57;9.17;;;16.70;98.30;;;;;;3944126;30;20499;-82
2021/06/23 04:52:42;;;;;;;15.03;9.50;;;16.80;98.30;;;;;;3940570;30;20479;-83
2021/06/23 04:54:45;;;;;;;12.20;8.73;;;16.90;98.30;;;;;;3937768;30;20487;-83
2021/06/23 04:56:49;;;;;;;17.13;9.80;;;16.80;98.30;;;;;;3946580;30;20505;-83
2021/06/23 04:58:53;;;;;;;12.10;8.80;;;16.90;98.30;;;;;;3945472;30;20880;-82
2021/06/23 05:00:55;;;;;;;20.27;9.47;;;16.90;98.30;;;;;;3938772;30;20480;-83
2021/06/23 05:02:59;;;;;;;14.67;9.47;;;17.00;98.30;;;;;;3940793;30;20571;-83
2021/06/23 05:05:02;;;;;;;16.23;9.40;;;16.80;98.30;;;;;;3942941;30;20570;-83
2021/06/23 05:07:07;;;;;;;24.60;10.90;;;16.80;98.30;;;;;;3945302;30;20499;-83
2021/06/23 05:09:10;;;;;;;21.50;10.97;;;16.80;98.30;;;;;;3939909;30;20509;-83
2021/06/23 05:11:13;;;;;;;27.73;9.83;;;16.90;98.30;;;;;;3939036;30;20504;-83
2021/06/23 05:13:18;;;;;;;26.30;10.20;;;17.00;98.30;;;;;;3943428;30;20474;-83
2021/06/23 05:15:21;;;;;;;17.93;10.07;;;17.00;98.30;;;;;;3943041;30;20540;-83
2021/06/23 05:17:26;;;;;;;17.40;8.67;;;17.00;98.30;;;;;;3942073;30;20558;-82
2021/06/23 05:19:29;;;;;;;19.03;11.90;;;17.00;98.30;;;;;;3944823;30;20531;-83
2021/06/23 05:21:36;;;;;;;18.03;9.57;;;17.10;98.30;;;;;;3940356;30;20484;-83
2021/06/23 05:23:41;;;;;;;21.47;12.20;;;17.10;98.30;;;;;;3941239;30;20474;-84
2021/06/23 05:25:44;;;;;;;37.20;25.23;;;17.20;98.30;;;;;;3945557;30;20486;-84
2021/06/23 05:27:48;;;;;;;25.73;17.57;;;17.30;98.30;;;;;;3942456;30;20599;-83
2021/06/23 05:29:52;;;;;;;23.77;13.47;;;17.40;98.30;;;;;;3942406;30;20579;-83
2021/06/23 05:31:55;;;;;;;19.77;13.10;;;17.40;98.30;;;;;;3943330;30;20502;-83
2021/06/23 05:33:59;;;;;;;23.40;12.50;;;17.20;98.30;;;;;;3945668;30;20484;-83
2021/06/23 05:36:02;;;;;;;21.73;13.40;;;17.10;98.30;;;;;;3945592;30;20490;-84
2021/06/23 05:38:05;;;;;;;19.90;11.90;;;17.20;98.30;;;;;;3941646;30;20493;-84
2021/06/23 05:40:09;;;;;;;35.23;22.77;;;17.20;98.30;;;;;;3942291;30;20854;-83
2021/06/23 05:42:12;;;;;;;35.30;21.13;;;17.20;98.30;;;;;;3941725;30;20978;-84
2021/06/23 05:44:15;;;;;;;50.00;34.00;;;17.40;98.30;;;;;;3939677;30;20501;-83
2021/06/23 05:46:20;;;;;;;28.67;18.33;;;17.60;98.30;;;;;;3934862;30;20472;-83
2021/06/23 05:48:23;;;;;;;18.80;11.57;;;17.90;98.30;;;;;;3941168;30;20902;-82
2021/06/23 05:50:26;;;;;;;28.03;19.70;;;17.90;98.30;;;;;;3941772;30;20518;-83
2021/06/23 05:52:32;;;;;;;24.83;16.90;;;17.90;98.30;;;;;;3940892;30;20594;-84
2021/06/23 05:54:35;;;;;;;16.97;11.57;;;17.90;98.30;;;;;;3941936;30;20558;-83
2021/06/23 05:56:38;;;;;;;26.70;12.70;;;17.70;98.30;;;;;;3942407;30;20984;-83
2021/06/23 05:58:41;;;;;;;31.10;11.97;;;17.50;98.30;;;;;;3943104;30;21258;-83
2021/06/23 06:00:44;;;;;;;20.27;11.40;;;17.50;98.30;;;;;;3941072;30;20849;-83
2021/06/23 06:02:49;;;;;;;36.73;28.20;;;17.50;98.30;;;;;;3939817;30;20559;-84
2021/06/23 06:04:52;;;;;;;19.87;11.20;;;17.60;98.30;;;;;;3939652;30;20496;-83
2021/06/23 06:06:55;;;;;;;16.17;11.60;;;17.70;98.30;;;;;;3941215;30;20487;-83
2021/06/23 06:08:58;;;;;;;12.80;9.93;;;17.80;98.30;;;;;;3942225;30;21179;-83
2021/06/23 06:11:01;;;;;;;19.70;9.90;;;17.50;98.30;;;;;;3943599;30;20487;-82
2021/06/23 06:13:05;;;;;;;16.63;12.60;;;17.30;98.30;;;;;;3938058;30;20479;-84
2021/06/23 06:15:09;;;;;;;24.40;10.80;;;17.20;98.30;;;;;;3942539;30;20483;-83
2021/06/23 06:17:12;;;;;;;18.80;9.63;;;17.30;98.30;;;;;;3946790;30;20908;-83
2021/06/23 06:19:17;;;;;;;36.90;24.83;;;17.10;98.30;;;;;;3942910;30;20499;-83
2021/06/23 06:21:20;;;;;;;21.70;11.37;;;17.00;98.30;;;;;;3932857;30;20488;-83
2021/06/23 06:23:23;;;;;;;17.00;10.87;;;17.00;98.30;;;;;;3944902;30;20485;-83
2021/06/23 06:25:26;;;;;;;17.87;9.73;;;17.10;98.30;;;;;;3945648;30;20514;-82
2021/06/23 06:27:29;;;;;;;21.00;12.43;;;17.00;98.30;;;;;;3941595;30;20491;-82
2021/06/23 06:29:32;;;;;;;19.13;10.50;;;16.90;98.30;;;;;;3942199;30;20607;-84
2021/06/23 06:31:35;;;;;;;19.47;9.40;;;17.00;98.30;;;;;;3937992;30;20529;-85
2021/06/23 06:33:39;;;;;;;13.57;9.13;;;17.00;98.30;;;;;;3941554;30;20534;-84
2021/06/23 06:35:43;;;;;;;20.97;9.70;;;16.90;98.30;;;;;;3946667;30;20483;-84
2021/06/23 06:37:47;;;;;;;13.33;9.47;;;17.00;98.30;;;;;;3933736;30;20475;-85
2021/06/23 06:39:50;;;;;;;15.47;8.90;;;17.20;98.30;;;;;;3938412;30;20535;-84
2021/06/23 06:41:53;;;;;;;36.40;22.03;;;17.30;98.30;;;;;;3933743;30;20571;-85
2021/06/23 06:43:56;;;;;;;14.53;9.20;;;17.20;98.30;;;;;;3932449;30;20484;-84
2021/06/23 06:45:59;;;;;;;14.87;8.57;;;17.20;98.30;;;;;;3941776;30;20488;-85
2021/06/23 06:48:09;;;;;;;14.73;8.70;;;17.20;98.30;;;;;;3931921;30;20524;-85
2021/06/23 06:50:29;;;;;;;13.67;7.80;;;17.00;98.30;;;;;;3938721;30;20510;-85
2021/06/23 06:52:45;;;;;;;13.30;8.50;;;16.90;98.30;;;;;;3936777;30;20508;-86
2021/06/23 06:54:59;;;;;;;13.00;7.83;;;17.00;98.30;;;;;;3935160;30;20575;-86
2021/06/23 06:57:23;;;;;;;13.37;7.63;;;17.10;98.30;;;;;;3932854;30;20492;-86
2021/06/23 06:59:30;;;;;;;12.80;8.00;;;17.00;98.30;;;;;;3939018;30;20506;-86
2021/06/23 07:01:41;;;;;;;23.43;11.33;;;17.00;98.30;;;;;;3942252;30;20974;-86
2021/06/23 07:03:58;;;;;;;16.97;8.83;;;17.00;98.30;;;;;;3945239;30;20578;-85
2021/06/23 07:06:20;;;;;;;13.23;6.83;;;17.00;98.30;;;;;;3940514;30;20486;-86
2021/06/23 07:08:31;;;;;;;12.70;6.90;;;17.00;98.30;;;;;;3946804;30;20492;-86
2021/06/23 07:16:59;;;;;;;13.97;8.03;;;16.90;98.30;;;;;;3886755;30;20517;-86
2021/06/23 07:19:24;;;;;;;13.57;7.30;;;17.00;98.30;;;;;;3906824;30;20497;-86
2021/06/23 07:22:28;;;;;;;15.20;7.60;;;17.10;98.30;;;;;;3910307;30;20561;-86
2021/06/23 07:25:34;;;;;;;18.70;10.90;;;17.30;98.30;;;;;;3894875;30;20537;-86
2021/06/23 07:28:24;;;;;;;43.93;31.47;;;17.70;98.30;;;;;;3922398;30;20495;-86
2021/06/23 07:47:57;;;;;;;11.27;8.27;;;19.10;98.30;;;;;;3860105;30;20491;-86
2021/06/23 08:30:55;;;;;;;12.13;7.03;;;20.20;98.30;;;;;;3872322;30;20536;-86
2021/06/23 08:44:10;;;;;;;18.10;11.87;;;20.20;98.30;;;;;;3779410;31;20498;-86
2021/06/23 08:47:11;;;;;;;14.33;9.20;;;20.30;98.30;;;;;;3778102;31;20563;-87
2021/06/23 08:53:07;;;;;;;10.60;9.07;;;20.00;98.30;;;;;;3792001;31;20511;-86
2021/06/23 11:22:16;;;;;;;5.83;5.23;;;26.40;80.70;;;;;;3960087;30;20573;-85
2021/06/23 11:24:20;;;;;;;6.70;4.37;;;26.30;79.40;;;;;;3962866;30;20477;-84
2021/06/23 11:26:49;;;;;;;7.23;5.30;;;25.60;79.70;;;;;;3961393;30;20474;-84
2021/06/23 11:28:53;;;;;;;8.17;5.10;;;25.00;83.00;;;;;;3955081;30;20497;-83
2021/06/23 11:31:09;;;;;;;8.60;5.47;;;24.40;85.00;;;;;;3933663;30;20473;-84
2021/06/23 12:02:09;;;;;;;8.57;5.93;;;23.10;90.00;;;;;;3960935;30;20538;-84
2021/06/23 12:04:13;;;;;;;9.50;7.23;;;23.00;89.30;;;;;;3963254;30;20565;-83
2021/06/23 12:06:16;;;;;;;10.30;8.43;;;22.80;88.90;;;;;;3962975;30;20481;-83
2021/06/23 12:08:19;;;;;;;9.33;8.33;;;22.80;89.30;;;;;;3962540;30;20478;-84
2021/06/23 12:10:24;;;;;;;9.90;6.20;;;23.10;88.40;;;;;;3961969;30;20478;-83
2021/06/23 12:12:27;;;;;;;10.23;6.73;;;23.20;88.70;;;;;;3954392;30;20502;-83
2021/06/23 12:14:29;;;;;;;9.17;6.77;;;23.20;87.80;;;;;;3945795;30;21047;-83
2021/06/23 12:16:34;;;;;;;8.00;6.10;;;23.00;87.90;;;;;;3953164;30;20486;-83
2021/06/23 12:18:38;;;;;;;9.70;6.10;;;23.10;87.90;;;;;;3946226;30;20475;-83
2021/06/23 12:20:42;;;;;;;8.33;6.53;;;23.10;88.40;;;;;;3957468;30;20482;-83
2021/06/23 12:22:45;;;;;;;6.13;5.00;;;23.20;88.80;;;;;;3946539;30;20490;-83
2021/06/23 12:24:48;;;;;;;7.70;5.40;;;23.20;88.00;;;;;;3952404;30;20466;-83
2021/06/23 12:26:51;;;;;;;6.60;5.50;;;23.10;87.90;;;;;;3951105;30;20494;-83
2021/06/23 12:28:54;;;;;;;10.93;6.13;;;23.10;87.40;;;;;;3954167;29;20481;-83
2021/06/23 12:30:56;;;;;;;7.80;5.80;;;23.00;87.70;;;;;;3945987;30;20867;-83
2021/06/23 12:33:03;;;;;;;9.63;6.30;;;22.90;89.00;;;;;;3945654;30;21000;-83
2021/06/23 12:35:09;;;;;;;7.37;6.17;;;22.60;90.70;;;;;;3951690;30;20554;-83
2021/06/23 12:37:12;;;;;;;7.10;6.20;;;22.10;92.60;;;;;;3946303;30;20490;-82
2021/06/23 12:39:14;;;;;;;9.50;6.00;;;21.70;93.80;;;;;;3946901;30;20859;-83
2021/06/23 12:41:20;;;;;;;7.93;5.53;;;21.40;95.30;;;;;;3946237;30;20511;-83
2021/06/23 12:43:23;;;;;;;10.50;6.57;;;21.30;96.80;;;;;;3945980;30;20494;-82
2021/06/23 12:45:26;;;;;;;10.47;6.90;;;21.50;96.20;;;;;;3951535;30;20490;-83
2021/06/23 12:47:30;;;;;;;8.70;5.90;;;21.60;94.40;;;;;;3950172;30;20510;-83
2021/06/23 12:49:33;;;;;;;11.30;6.43;;;21.60;94.80;;;;;;3959644;30;20490;-83
2021/06/23 12:51:37;;;;;;;8.00;5.60;;;21.70;94.90;;;;;;3952784;30;20499;-83
2021/06/23 12:53:40;;;;;;;9.30;5.57;;;22.00;94.60;;;;;;3955336;29;20498;-83
2021/06/23 12:55:48;;;;;;;9.63;6.03;;;22.30;93.70;;;;;;3957692;30;20548;-83
2021/06/23 12:57:51;;;;;;;10.50;5.47;;;22.50;92.70;;;;;;3953045;30;20483;-83
2021/06/23 12:59:54;;;;;;;9.20;5.17;;;22.40;92.70;;;;;;3959979;30;20483;-83
2021/06/23 13:01:58;;;;;;;6.60;5.00;;;22.70;94.00;;;;;;3956120;30;20502;-83
2021/06/23 13:04:01;;;;;;;8.60;5.30;;;23.30;92.10;;;;;;3957873;30;20478;-83
2021/06/23 13:06:04;;;;;;;8.03;4.83;;;23.90;90.20;;;;;;3949582;30;20482;-82
2021/06/23 13:08:09;;;;;;;7.03;5.40;;;24.10;87.50;;;;;;3958415;30;20491;-83
2021/06/23 13:10:13;;;;;;;7.87;5.40;;;24.30;86.40;;;;;;3960243;30;20497;-83
2021/06/23 13:12:16;;;;;;;6.53;5.40;;;24.20;86.10;;;;;;3948468;30;21016;-83
2021/06/23 13:14:19;;;;;;;6.73;5.63;;;24.30;86.80;;;;;;3960828;30;20777;-83
2021/06/23 13:16:22;;;;;;;7.23;5.10;;;24.30;86.60;;;;;;3959279;30;20486;-83
2021/06/23 13:18:25;;;;;;;7.23;5.97;;;24.10;87.30;;;;;;3956320;30;20498;-83
2021/06/23 13:20:28;;;;;;;7.90;5.33;;;24.20;86.40;;;;;;3956281;30;20478;-83
2021/06/23 13:22:31;;;;;;;6.93;5.03;;;24.10;86.70;;;;;;3960663;30;20508;-83
2021/06/23 13:24:36;;;;;;;8.97;8.00;;;24.10;86.10;;;;;;3953840;30;20475;-83
2021/06/23 13:26:39;;;;;;;9.90;5.77;;;23.70;88.00;;;;;;3959544;30;20487;-83
2021/06/23 13:28:42;;;;;;;7.13;5.90;;;23.20;87.90;;;;;;3957722;30;20539;-82
2021/06/23 13:30:45;;;;;;;7.63;5.43;;;22.70;89.30;;;;;;3949140;30;20486;-83
2021/06/23 13:32:49;;;;;;;8.77;6.30;;;22.70;90.90;;;;;;3948735;30;20482;-83
2021/06/23 13:34:52;;;;;;;6.53;5.07;;;22.70;90.90;;;;;;3955841;30;20502;-83
2021/06/23 13:36:55;;;;;;;9.60;5.50;;;22.70;91.80;;;;;;3956216;29;20888;-83
2021/06/23 13:38:59;;;;;;;10.33;6.20;;;22.80;91.20;;;;;;3958493;30;20860;-83
2021/06/23 13:41:04;;;;;;;9.60;5.60;;;22.80;91.00;;;;;;3957139;30;21207;-83
2021/06/23 13:43:09;;;;;;;8.10;5.43;;;22.70;90.60;;;;;;3951432;30;20482;-83
2021/06/23 13:45:13;;;;;;;6.77;4.90;;;22.60;91.30;;;;;;3959608;30;20906;-83
2021/06/23 13:47:16;;;;;;;8.30;5.40;;;22.80;92.00;;;;;;3956501;30;20490;-83
2021/06/23 13:49:20;;;;;;;6.77;6.13;;;22.70;91.00;;;;;;3959005;30;21067;-83
2021/06/23 13:51:23;;;;;;;9.17;5.80;;;22.70;91.70;;;;;;3956573;30;21035;-82
2021/06/23 13:53:26;;;;;;;9.50;6.03;;;22.70;91.90;;;;;;3954487;30;20566;-83
2021/06/23 13:55:34;;;;;;;9.03;5.40;;;22.80;90.40;;;;;;3958004;30;20549;-83
2021/06/23 13:57:40;;;;;;;9.77;6.40;;;22.70;91.00;;;;;;3955887;30;20489;-83
2021/06/23 13:59:43;;;;;;;5.93;5.23;;;22.50;90.40;;;;;;3953319;30;20514;-83
2021/06/23 14:01:46;;;;;;;6.23;5.20;;;22.40;91.80;;;;;;3957401;30;20511;-83
2021/06/23 14:03:54;;;;;;;5.93;5.10;;;22.70;91.40;;;;;;3948677;30;21028;-83
2021/06/23 14:06:00;;;;;;;9.63;4.80;;;22.70;90.70;;;;;;3951782;29;21170;-83
2021/06/23 14:08:12;;;;;;;8.97;5.40;;;22.90;90.50;;;;;;3948024;30;20478;-83
2021/06/23 14:10:15;;;;;;;6.20;4.50;;;22.70;88.60;;;;;;3956004;30;20967;-83
2021/06/23 14:12:19;;;;;;;7.63;5.00;;;22.40;89.00;;;;;;3956706;30;20506;-83
2021/06/23 14:14:23;;;;;;;8.60;5.00;;;22.30;90.50;;;;;;3949018;30;20517;-84
2021/06/23 14:16:26;;;;;;;6.70;4.80;;;22.40;90.10;;;;;;3955271;30;20493;-83
2021/06/23 14:18:31;;;;;;;6.47;4.50;;;22.40;90.10;;;;;;3956877;30;20492;-82
2021/06/23 14:20:34;;;;;;;6.70;4.93;;;22.40;91.20;;;;;;3954469;30;20916;-83
2021/06/23 14:22:38;;;;;;;9.37;5.03;;;22.30;90.00;;;;;;3948311;30;20507;-83
2021/06/23 14:24:43;;;;;;;5.13;4.03;;;22.10;90.50;;;;;;3940540;30;20475;-83
2021/06/23 14:27:03;;;;;;;8.57;4.60;;;22.30;91.00;;;;;;3948453;30;20482;-83
2021/06/23 14:29:06;;;;;;;5.03;4.50;;;22.00;91.10;;;;;;3950534;30;21008;-83
2021/06/23 14:31:11;;;;;;;13.17;5.83;;;21.90;90.20;;;;;;3954180;30;20525;-82
2021/06/23 14:33:14;;;;;;;7.33;5.40;;;21.70;91.00;;;;;;3948296;30;20486;-82
2021/06/23 14:35:18;;;;;;;8.83;4.97;;;21.60;91.00;;;;;;3947802;30;20925;-83
2021/06/23 14:37:21;;;;;;;5.73;5.07;;;21.80;91.40;;;;;;3948020;30;20479;-82
2021/06/23 14:39:24;;;;;;;8.30;4.83;;;22.00;91.10;;;;;;3949000;30;20494;-83
2021/06/23 14:41:28;;;;;;;7.33;4.70;;;22.10;91.10;;;;;;3948153;30;20512;-83
2021/06/23 14:43:31;;;;;;;5.00;4.50;;;22.10;91.60;;;;;;3948279;30;20506;-83
2021/06/23 14:45:34;;;;;;;5.90;5.13;;;22.20;90.80;;;;;;3947894;30;20974;-83
2021/06/23 14:47:38;;;;;;;7.90;5.03;;;22.00;91.80;;;;;;3955792;30;21247;-83
2021/06/23 14:49:43;;;;;;;8.20;5.57;;;22.20;91.30;;;;;;3952624;30;20507;-83
2021/06/23 14:51:47;;;;;;;4.60;4.20;;;22.20;91.20;;;;;;3954652;30;20524;-82
2021/06/23 14:53:49;;;;;;;6.10;4.47;;;22.30;90.70;;;;;;3958243;29;20538;-83
2021/06/23 14:55:53;;;;;;;8.20;3.93;;;22.30;91.30;;;;;;3954318;30;20590;-83
2021/06/23 14:57:57;;;;;;;5.23;4.50;;;22.60;91.10;;;;;;3955525;30;20867;-83
2021/06/23 15:00:01;;;;;;;5.80;4.20;;;22.70;90.50;;;;;;3947508;30;20500;-83
2021/06/23 15:02:04;;;;;;;5.63;4.40;;;22.90;90.00;;;;;;3947954;30;20533;-83